Time;durP1;ratioP1;P1;durP2;ratioP2;P2;SDS_P1;SDS_P2;PMS_P1;PMS_P2;Temp;Humidity;BMP_temperature;BMP_pressure;BME280_temperature;BME280_humidity;BME280_pressure;Samples;Min_cycle;Max_cycle;Signal;HPM_P1;HPM_P2
2022/08/08 00:00:19;;;;;;;6.03;4.07;;;;;;;15.96;62.79;102351.72;5006100;28;20073;-76
2022/08/08 00:03:13;;;;;;;5.22;4.22;;;;;;;15.91;61.46;102360.56;5006213;28;20053;-76
2022/08/08 00:05:57;;;;;;;5.50;4.07;;;;;;;15.87;63.43;102356.31;5007184;28;20044;-75
2022/08/08 00:08:30;;;;;;;6.32;4.13;;;;;;;15.83;62.43;102353.75;5005263;28;20033;-75
2022/08/08 00:11:07;;;;;;;6.03;4.28;;;;;;;15.75;63.44;102359.19;5005039;28;20029;-75
2022/08/08 00:13:47;;;;;;;6.45;4.60;;;;;;;15.72;62.74;102352.25;5005364;28;20034;-75
2022/08/08 00:16:22;;;;;;;6.07;4.13;;;;;;;15.73;62.12;102360.97;5002546;28;20052;-75
2022/08/08 00:19:04;;;;;;;6.63;4.13;;;;;;;15.73;61.60;102358.34;5007566;28;20040;-75
2022/08/08 00:21:40;;;;;;;8.43;4.15;;;;;;;15.70;62.96;102359.28;5003882;28;20025;-75
2022/08/08 00:24:16;;;;;;;7.18;4.55;;;;;;;15.69;63.12;102356.72;5008377;28;20408;-75
2022/08/08 00:26:47;;;;;;;6.47;4.07;;;;;;;15.66;63.81;102357.63;5010869;28;20431;-75
2022/08/08 00:29:26;;;;;;;6.57;4.70;;;;;;;15.63;63.11;102369.06;5005569;28;20706;-76
2022/08/08 00:31:57;;;;;;;6.88;4.00;;;;;;;15.59;64.90;102362.16;5010522;28;20032;-75
2022/08/08 00:37:26;;;;;;;7.25;4.35;;;;;;;15.58;64.05;102364.81;5005891;28;20810;-75
2022/08/08 00:40:23;;;;;;;6.25;4.32;;;;;;;15.59;62.83;102362.16;5008152;28;20045;-75
2022/08/08 00:42:51;;;;;;;6.38;4.53;;;;;;;15.58;64.52;102365.66;4984568;28;20033;-75
2022/08/08 00:45:35;;;;;;;7.78;4.47;;;;;;;15.54;64.75;102365.78;5012265;28;20068;-75
2022/08/08 00:48:22;;;;;;;6.68;4.53;;;;;;;15.53;63.66;102362.31;5007181;28;20150;-75
2022/08/08 00:51:08;;;;;;;8.10;4.35;;;;;;;15.52;64.58;102362.31;5012604;28;20820;-75
2022/08/08 00:53:59;;;;;;;6.50;4.32;;;;;;;15.52;63.62;102354.47;5027902;28;20126;-75
2022/08/08 00:56:25;;;;;;;6.82;4.35;;;;;;;15.46;65.68;102351.06;5010027;28;20068;-75
2022/08/08 00:59:12;;;;;;;6.68;4.45;;;;;;;15.47;63.35;102357.19;5016555;28;20029;-75
2022/08/08 01:02:11;;;;;;;6.75;4.95;;;;;;;15.42;63.63;102356.41;5011536;28;20069;-76
2022/08/08 01:05:27;;;;;;;7.82;4.82;;;;;;;15.39;63.47;102348.63;5009457;28;20052;-75
2022/08/08 01:08:14;;;;;;;8.75;4.85;;;;;;;15.32;64.19;102353.13;5008794;28;20143;-75
2022/08/08 01:11:05;;;;;;;6.72;4.28;;;;;;;15.26;64.18;102348.88;5015112;28;20044;-74
2022/08/08 01:13:55;;;;;;;5.65;4.47;;;;;;;15.21;64.81;102348.13;5016465;28;20030;-75
2022/08/08 01:16:39;;;;;;;7.13;5.10;;;;;;;15.19;65.69;102347.31;5007876;28;20042;-76
2022/08/08 01:19:46;;;;;;;7.38;5.00;;;;;;;15.18;64.51;102353.44;5009471;28;20048;-75
2022/08/08 01:22:47;;;;;;;6.85;5.07;;;;;;;15.12;64.94;102350.94;5006851;28;20044;-75
2022/08/08 01:25:49;;;;;;;7.03;5.22;;;;;;;15.11;64.62;102343.97;5009901;28;20532;-74
2022/08/08 01:28:20;;;;;;;;;;;;;;;15.14;62.55;102346.53;5011122;28;20033;-72
2022/08/08 01:31:10;;;;;;;6.00;4.68;;;;;;;15.06;64.50;102348.44;5014623;28;19963;-73
2022/08/08 01:33:57;;;;;;;8.70;5.70;;;;;;;14.98;65.06;102344.22;5004141;28;20481;-73
2022/08/08 01:37:11;;;;;;;10.35;5.80;;;;;;;14.96;64.69;102346.00;5007317;28;20054;-73
2022/08/08 01:39:55;;;;;;;9.07;5.20;;;;;;;14.91;66.86;102347.84;5008701;28;20042;-73
2022/08/08 01:42:48;;;;;;;8.07;5.57;;;;;;;14.87;64.56;102346.19;5009726;28;20519;-73
2022/08/08 01:45:49;;;;;;;7.20;4.90;;;;;;;14.80;65.27;102344.59;5008052;28;20037;-73
2022/08/08 01:48:43;;;;;;;6.32;4.55;;;;;;;14.75;66.01;102349.94;5006366;28;20044;-73
2022/08/08 01:51:47;;;;;;;8.45;4.80;;;;;;;14.71;65.14;102343.00;5011499;28;20027;-73
2022/08/08 01:54:38;;;;;;;7.07;4.88;;;;;;;14.67;67.25;102350.03;5007909;28;20490;-73
2022/08/08 01:57:28;;;;;;;6.53;4.90;;;;;;;14.66;65.23;102343.06;5008479;28;20508;-73
2022/08/08 02:00:07;;;;;;;7.25;5.53;;;;;;;14.60;66.67;102343.16;5008075;28;20389;-72
2022/08/08 02:03:05;;;;;;;7.40;5.15;;;;;;;14.54;66.55;102348.50;5012852;28;20045;-73
2022/08/08 02:05:44;;;;;;;6.95;4.95;;;;;;;14.47;69.30;102346.91;5007876;28;20038;-73
2022/08/08 02:08:59;;;;;;;5.45;4.60;;;;;;;14.43;66.57;102346.13;5004098;28;20034;-73
2022/08/08 02:11:35;;;;;;;6.30;4.78;;;;;;;14.35;68.79;102346.22;5008653;28;20123;-73
2022/08/08 02:14:14;;;;;;;5.97;4.65;;;;;;;14.32;69.46;102355.88;5010342;28;20026;-73
2022/08/08 02:16:48;;;;;;;7.97;4.75;;;;;;;14.31;69.95;102351.53;5005363;28;20037;-73
2022/08/08 02:19:23;;;;;;;7.65;4.90;;;;;;;14.29;69.25;102351.59;5006627;28;20029;-73
2022/08/08 02:24:55;;;;;;;6.82;4.97;;;;;;;14.20;69.58;102342.13;5007684;28;20425;-73
2022/08/08 02:27:40;;;;;;;9.05;5.35;;;;;;;14.20;69.15;102344.75;5005079;28;20025;-73
2022/08/08 02:30:18;;;;;;;9.60;5.78;;;;;;;14.21;71.06;102350.84;5008650;28;20029;-73
2022/08/08 02:33:23;;;;;;;7.25;5.05;;;;;;;14.23;69.55;102346.44;5010296;28;20033;-73
2022/08/08 02:35:59;;;;;;;7.50;5.22;;;;;;;14.23;70.32;102349.94;5009642;28;20110;-73
2022/08/08 02:38:33;;;;;;;7.28;5.10;;;;;;;14.21;69.43;102356.06;5021851;28;20835;-73
2022/08/08 02:41:23;;;;;;;7.57;5.43;;;;;;;14.20;68.86;102357.84;5008010;28;20377;-72
2022/08/08 02:44:24;;;;;;;8.93;5.65;;;;;;;14.14;69.98;102349.22;5005945;28;20038;-73
2022/08/08 02:47:05;;;;;;;7.68;4.95;;;;;;;14.12;70.66;102344.00;5007329;28;20642;-72
2022/08/08 02:50:11;;;;;;;7.30;5.32;;;;;;;14.14;69.69;102344.00;5025397;28;20104;-73
2022/08/08 02:53:15;;;;;;;7.57;5.07;;;;;;;14.13;70.05;102345.72;5011195;28;20033;-73
2022/08/08 02:55:41;;;;;;;8.95;5.40;;;;;;;14.11;71.03;102339.66;5012067;28;20029;-73
2022/08/08 02:58:51;;;;;;;7.82;5.45;;;;;;;14.14;68.43;102346.59;5008191;28;20388;-73
2022/08/08 03:02:04;;;;;;;8.32;5.75;;;;;;;14.12;69.16;102351.84;5004086;28;20034;-72
2022/08/08 03:05:00;;;;;;;6.85;5.45;;;;;;;14.10;68.62;102344.03;5004518;28;20029;-72
2022/08/08 03:08:03;;;;;;;9.25;6.03;;;;;;;14.08;69.44;102350.19;5004634;28;20045;-73
2022/08/08 03:11:06;;;;;;;7.97;5.57;;;;;;;14.04;69.13;102348.50;5007469;28;20057;-72
2022/08/08 03:14:19;;;;;;;7.20;5.55;;;;;;;13.98;70.52;102354.72;5007289;28;20108;-73
2022/08/08 03:17:10;;;;;;;7.03;5.35;;;;;;;13.94;70.45;102351.25;5023742;28;20528;-73
2022/08/08 03:19:58;;;;;;;9.18;5.70;;;;;;;13.90;70.65;102348.72;5020947;28;20087;-72
2022/08/08 03:22:23;;;;;;;8.23;5.50;;;;;;;13.87;71.00;102354.88;5006543;28;21595;-72
2022/08/08 03:24:50;;;;;;;9.63;6.03;;;;;;;13.85;71.94;102353.16;5023866;28;20037;-73
2022/08/08 03:27:28;;;;;;;7.20;5.68;;;;;;;13.85;71.74;102355.75;5021503;28;20049;-73
2022/08/08 03:30:02;;;;;;;8.32;5.50;;;;;;;13.83;71.69;102365.41;5005463;28;20552;-73
2022/08/08 03:35:11;;;;;;;9.25;5.65;;;;;;;13.79;71.71;102362.84;5005339;28;20469;-73
2022/08/08 03:37:37;;;;;;;7.80;5.60;;;;;;;13.78;71.66;102366.34;5008455;28;20046;-73
2022/08/08 03:40:04;;;;;;;8.50;6.13;;;;;;;13.73;71.92;102365.53;5009666;28;20030;-73
2022/08/08 03:42:30;;;;;;;8.75;5.75;;;;;;;13.71;72.41;102367.28;5007090;28;20124;-73
2022/08/08 03:44:55;;;;;;;9.20;5.75;;;;;;;13.68;71.95;102375.19;5005837;28;20033;-72
2022/08/08 03:47:21;;;;;;;9.60;5.80;;;;;;;13.65;72.23;102375.25;5002812;28;20381;-73
2022/08/08 03:49:48;;;;;;;8.10;6.18;;;;;;;13.61;72.08;102376.16;5004838;28;20026;-73
2022/08/08 03:52:14;;;;;;;8.63;5.88;;;;;;;13.57;72.48;102379.72;5004450;28;20026;-72
2022/08/08 03:54:43;;;;;;;8.40;5.68;;;;;;;13.48;72.73;102370.22;5005637;28;20047;-73
2022/08/08 03:57:13;;;;;;;7.78;5.93;;;;;;;13.43;72.68;102387.72;5005339;28;20170;-73
2022/08/08 03:59:39;;;;;;;7.72;6.10;;;;;;;13.39;72.56;102378.19;5006552;28;20481;-73
2022/08/08 04:02:17;;;;;;;9.82;6.15;;;;;;;13.36;72.14;102379.06;5006710;28;20030;-72
2022/08/08 04:04:43;;;;;;;8.10;6.22;;;;;;;13.33;73.36;102382.59;5006057;28;20111;-73
2022/08/08 04:07:08;;;;;;;8.48;6.28;;;;;;;13.31;73.93;102389.59;5007494;28;20018;-73
2022/08/08 04:09:34;;;;;;;8.40;6.20;;;;;;;13.33;73.14;102384.31;5006429;28;20026;-73
2022/08/08 04:11:59;;;;;;;9.93;6.25;;;;;;;13.34;73.68;102380.84;5008435;28;20522;-73
2022/08/08 04:14:25;;;;;;;9.27;5.75;;;;;;;13.32;73.36;102377.41;5004214;28;20033;-73
2022/08/08 04:16:51;;;;;;;8.07;6.25;;;;;;;13.33;73.96;102381.72;5005815;28;20836;-73
2022/08/08 04:19:16;;;;;;;10.18;6.22;;;;;;;13.34;73.61;102391.28;5007790;28;20547;-73
2022/08/08 04:21:41;;;;;;;9.88;6.53;;;;;;;13.32;73.71;102385.25;5009383;28;20034;-73
2022/08/08 04:24:06;;;;;;;9.18;6.03;;;;;;;13.32;73.75;102382.63;5007594;28;20022;-73
2022/08/08 04:26:32;;;;;;;10.95;6.25;;;;;;;13.29;74.26;102380.03;5013964;28;20025;-73
2022/08/08 04:28:57;;;;;;;14.25;5.82;;;;;;;13.29;73.89;102390.50;5012440;28;20034;-72
2022/08/08 04:31:22;;;;;;;7.72;5.68;;;;;;;13.30;72.82;102387.84;5008810;28;20113;-73
2022/08/08 04:33:48;;;;;;;8.02;5.45;;;;;;;13.29;73.14;102388.75;5013609;28;20053;-72
2022/08/08 04:36:13;;;;;;;8.20;5.90;;;;;;;13.33;72.69;102392.16;5010508;28;20064;-73
2022/08/08 04:38:38;;;;;;;8.43;5.97;;;;;;;13.35;72.91;102385.19;5013500;28;20032;-72
2022/08/08 04:41:04;;;;;;;10.10;6.38;;;;;;;13.37;73.16;102391.25;5004259;28;20048;-72
2022/08/08 04:43:29;;;;;;;8.27;5.68;;;;;;;13.38;72.94;102395.59;5008311;28;20368;-73
2022/08/08 04:45:55;;;;;;;9.68;6.43;;;;;;;13.40;73.88;102406.94;5012155;28;20299;-73
2022/08/08 04:48:20;;;;;;;9.73;6.57;;;;;;;13.42;74.22;102406.91;5010160;28;20510;-73
2022/08/08 04:50:45;;;;;;;8.25;6.07;;;;;;;13.44;73.65;102412.97;5009033;28;20034;-72
2022/08/08 04:53:10;;;;;;;9.45;6.35;;;;;;;13.44;73.74;102419.09;5011584;28;20095;-72
2022/08/08 04:55:36;;;;;;;12.10;6.30;;;;;;;13.46;73.94;102412.09;5011961;28;20524;-72
2022/08/08 04:58:01;;;;;;;9.90;7.43;;;;;;;13.47;74.30;102416.44;5008350;28;20030;-73
2022/08/08 05:00:26;;;;;;;9.57;6.40;;;;;;;13.47;73.78;102429.53;5007408;28;20045;-73
2022/08/08 05:02:52;;;;;;;10.50;6.15;;;;;;;13.44;73.86;102432.16;5008027;28;20079;-73
2022/08/08 05:05:17;;;;;;;8.00;6.15;;;;;;;13.41;74.38;102432.19;5009048;28;20022;-73
2022/08/08 05:07:45;;;;;;;10.32;6.25;;;;;;;13.42;74.63;102426.09;5010647;28;20556;-72
2022/08/08 05:10:10;;;;;;;7.68;6.43;;;;;;;13.47;74.81;102431.25;5009166;28;20030;-73
2022/08/08 05:12:35;;;;;;;10.65;6.65;;;;;;;13.49;74.75;102435.56;5011985;28;20030;-73
2022/08/08 05:15:00;;;;;;;7.20;5.75;;;;;;;13.55;74.66;102436.38;5014762;28;20466;-73
2022/08/08 05:17:26;;;;;;;8.82;6.18;;;;;;;13.58;75.02;102433.72;5012519;28;20495;-72
2022/08/08 05:19:51;;;;;;;8.02;6.30;;;;;;;13.61;75.00;102431.09;5006045;28;20056;-73
2022/08/08 05:22:16;;;;;;;7.88;6.22;;;;;;;13.62;75.01;102430.19;5010994;28;20030;-72
2022/08/08 05:24:41;;;;;;;9.70;6.78;;;;;;;13.68;75.39;102429.25;5011987;28;20485;-72
2022/08/08 05:27:07;;;;;;;9.13;6.88;;;;;;;13.74;75.53;102432.66;5009248;28;20445;-73
2022/08/08 05:29:32;;;;;;;9.13;6.97;;;;;;;13.81;75.87;102431.69;5008604;28;20485;-72
2022/08/08 05:31:58;;;;;;;9.55;6.22;;;;;;;13.87;75.87;102430.75;5008576;28;20519;-73
2022/08/08 05:34:42;;;;;;;9.35;6.90;;;;;;;13.95;76.18;102425.41;5012033;28;20025;-73
2022/08/08 05:37:10;;;;;;;8.27;6.63;;;;;;;14.03;76.25;102426.13;5009477;28;20050;-73
2022/08/08 05:39:37;;;;;;;8.05;6.35;;;;;;;14.10;76.41;102430.41;5010384;28;20030;-73
2022/08/08 05:42:03;;;;;;;9.27;6.72;;;;;;;14.20;76.34;102430.25;5008469;28;20123;-73
2022/08/08 05:44:29;;;;;;;8.70;6.88;;;;;;;14.27;76.38;102429.28;5008359;28;20116;-73
2022/08/08 05:46:57;;;;;;;10.55;7.32;;;;;;;14.34;76.46;102444.00;5010210;28;20149;-73
2022/08/08 05:49:23;;;;;;;9.77;6.72;;;;;;;14.41;76.97;102443.00;5006175;28;20048;-72
2022/08/08 05:51:48;;;;;;;9.15;6.55;;;;;;;14.49;77.02;102435.03;5008219;28;20038;-72
2022/08/08 05:54:14;;;;;;;8.70;6.20;;;;;;;14.59;77.31;102435.72;5011701;28;20072;-73
2022/08/08 05:56:42;;;;;;;9.93;5.95;;;;;;;14.65;77.33;102443.50;5012443;28;20474;-72
2022/08/08 05:59:15;;;;;;;7.05;5.80;;;;;;;14.74;77.01;102441.63;5009045;28;20034;-73
2022/08/08 06:01:41;;;;;;;6.97;5.65;;;;;;;14.82;77.37;102445.84;5010576;28;20057;-73
2022/08/08 06:04:10;;;;;;;7.43;6.18;;;;;;;14.90;76.01;102444.84;5010222;28;20386;-73
2022/08/08 06:06:39;;;;;;;7.65;5.28;;;;;;;14.97;76.73;102442.09;5009290;28;20032;-73
2022/08/08 06:09:05;;;;;;;8.40;5.28;;;;;;;15.06;76.62;102446.28;5011673;28;20072;-75
2022/08/08 06:11:31;;;;;;;7.65;5.30;;;;;;;15.16;76.68;102439.97;5010190;28;20026;-72
2022/08/08 06:13:58;;;;;;;6.93;5.05;;;;;;;15.26;76.80;102445.91;5013480;28;20079;-72
2022/08/08 06:16:23;;;;;;;7.80;5.25;;;;;;;15.38;76.13;102451.78;5015541;28;20044;-73
2022/08/08 06:18:52;;;;;;;6.60;4.85;;;;;;;15.48;76.95;102450.72;5010220;28;20457;-73
2022/08/08 06:21:18;;;;;;;5.80;4.70;;;;;;;15.59;76.00;102446.09;5012756;28;20137;-73
2022/08/08 06:23:44;;;;;;;6.80;4.65;;;;;;;15.71;75.48;102454.63;5010000;28;20058;-74
2022/08/08 06:26:10;;;;;;;7.13;4.35;;;;;;;15.80;75.20;102459.66;5010932;28;20057;-73
2022/08/08 06:28:52;;;;;;;6.15;5.18;;;;;;;15.91;73.79;102459.47;5013345;28;20055;-73
2022/08/08 06:31:20;;;;;;;6.85;5.05;;;;;;;15.96;74.91;102454.09;5015249;28;20033;-73
2022/08/08 06:34:01;;;;;;;6.22;4.88;;;;;;;16.03;74.27;102460.97;5014570;28;20083;-73
2022/08/08 06:36:44;;;;;;;6.88;5.00;;;;;;;16.12;74.06;102460.72;5012150;28;20095;-73
2022/08/08 06:39:15;;;;;;;6.75;4.25;;;;;;;16.24;74.04;102463.06;5012230;28;20030;-73
2022/08/08 06:41:55;;;;;;;6.65;4.95;;;;;;;16.34;73.13;102465.47;5011042;28;20476;-73
2022/08/08 06:44:22;;;;;;;7.03;4.80;;;;;;;16.42;71.95;102460.88;5011185;28;20018;-73
2022/08/08 06:46:48;;;;;;;6.82;4.85;;;;;;;16.49;72.25;102465.09;5011705;28;20026;-73
2022/08/08 06:49:13;;;;;;;7.35;4.70;;;;;;;16.58;72.21;102471.91;5010884;28;20025;-74
2022/08/08 06:51:39;;;;;;;6.70;4.53;;;;;;;16.65;71.12;102472.59;5010300;28;20032;-73
2022/08/08 06:54:05;;;;;;;7.55;4.65;;;;;;;16.72;71.01;102468.94;5009690;28;20527;-73
2022/08/08 06:56:30;;;;;;;6.18;4.55;;;;;;;16.77;70.50;102476.69;5005815;28;20038;-73
2022/08/08 06:58:56;;;;;;;7.03;4.63;;;;;;;16.83;70.31;102473.88;5014661;28;20076;-73
2022/08/08 07:01:25;;;;;;;7.07;4.10;;;;;;;16.90;69.72;102474.63;5010514;28;20075;-73
2022/08/08 07:04:02;;;;;;;5.65;3.92;;;;;;;17.00;70.04;102473.47;5017088;28;20209;-73
2022/08/08 07:06:31;;;;;;;6.28;4.10;;;;;;;17.07;69.52;102471.56;5015690;28;20064;-73
2022/08/08 07:09:06;;;;;;;7.25;4.03;;;;;;;17.13;68.85;102477.50;5010996;28;20140;-72
2022/08/08 07:11:39;;;;;;;5.93;4.10;;;;;;;17.18;69.40;102480.00;5010462;28;20032;-73
2022/08/08 07:14:06;;;;;;;5.05;3.58;;;;;;;17.20;68.88;102475.56;5010611;28;20060;-73
2022/08/08 07:16:54;;;;;;;5.10;3.45;;;;;;;17.28;67.96;102475.34;5009953;28;20076;-73
2022/08/08 07:19:29;;;;;;;5.43;3.55;;;;;;;17.37;68.62;102488.25;5011506;28;20057;-73
2022/08/08 07:22:06;;;;;;;5.50;3.47;;;;;;;17.45;67.53;102488.03;5013139;28;20049;-73
2022/08/08 07:24:43;;;;;;;4.93;3.40;;;;;;;17.54;67.89;102494.81;5011952;28;20026;-73
2022/08/08 07:27:12;;;;;;;6.50;3.08;;;;;;;17.60;67.30;102486.72;5011497;28;20108;-73
2022/08/08 07:29:38;;;;;;;5.60;3.35;;;;;;;17.65;65.90;102492.72;5012858;28;20044;-72
2022/08/08 07:32:05;;;;;;;6.80;3.00;;;;;;;17.70;64.65;102488.19;5010913;28;20473;-73
2022/08/08 07:34:33;;;;;;;5.18;2.80;;;;;;;17.75;65.62;102490.69;5011138;28;20052;-73
2022/08/08 07:37:01;;;;;;;5.13;2.97;;;;;;;17.81;65.50;102493.16;5010788;28;20064;-73
2022/08/08 07:39:30;;;;;;;6.50;3.47;;;;;;;17.87;64.73;102492.09;5012883;28;20384;-74
2022/08/08 07:41:57;;;;;;;5.07;3.20;;;;;;;17.92;64.78;102484.94;5011544;28;20117;-73
2022/08/08 07:44:23;;;;;;;5.65;3.10;;;;;;;17.97;65.62;102498.78;5010998;28;20144;-73
2022/08/08 07:46:48;;;;;;;5.80;2.70;;;;;;;18.01;65.51;102494.34;5011651;28;20036;-73
2022/08/08 07:49:13;;;;;;;5.20;3.00;;;;;;;18.07;64.77;102490.66;5011156;28;20026;-73
2022/08/08 07:51:41;;;;;;;4.85;3.03;;;;;;;18.12;65.70;102488.72;5010370;28;20508;-73
2022/08/08 07:54:19;;;;;;;4.15;2.40;;;;;;;18.17;64.80;102500.88;5010449;28;20044;-73
2022/08/08 07:57:23;;;;;;;4.45;2.35;;;;;;;18.25;65.32;102500.63;5012016;28;21823;-73
2022/08/08 08:00:07;;;;;;;6.75;2.13;;;;;;;18.30;64.43;102501.31;5011504;28;20022;-73
2022/08/08 08:02:43;;;;;;;3.70;2.10;;;;;;;18.35;64.52;102502.03;5008931;28;20603;-73
2022/08/08 08:05:18;;;;;;;5.10;2.05;;;;;;;18.39;63.31;102501.94;5010679;28;20481;-73
2022/08/08 08:07:47;;;;;;;3.42;1.83;;;;;;;18.43;63.43;102503.59;5009410;28;20478;-73
2022/08/08 08:10:16;;;;;;;3.22;1.92;;;;;;;18.47;61.90;102510.44;5011138;28;20483;-73
2022/08/08 08:12:50;;;;;;;3.22;1.52;;;;;;;18.50;62.84;102511.25;5009565;28;20021;-73
2022/08/08 08:15:18;;;;;;;3.30;1.65;;;;;;;18.57;62.03;102511.91;5010368;28;20444;-73
2022/08/08 08:17:45;;;;;;;3.65;1.65;;;;;;;18.61;61.79;102513.53;5011067;28;20021;-73
2022/08/08 08:20:13;;;;;;;4.28;1.63;;;;;;;18.66;62.31;102514.22;5009920;28;20048;-73
2022/08/08 08:22:39;;;;;;;3.00;1.60;;;;;;;18.71;60.83;102510.56;5009788;28;20477;-73
2022/08/08 08:25:05;;;;;;;3.35;1.52;;;;;;;18.76;61.60;102506.00;5010931;28;20040;-73
2022/08/08 08:27:30;;;;;;;3.30;1.80;;;;;;;18.80;62.01;102513.75;5007942;28;20040;-73
2022/08/08 08:29:56;;;;;;;2.30;1.60;;;;;;;18.85;59.44;102516.22;5009211;28;20100;-73
2022/08/08 08:32:21;;;;;;;2.97;1.50;;;;;;;18.90;59.90;102519.59;5009343;28;20030;-73
2022/08/08 08:34:48;;;;;;;3.10;1.50;;;;;;;18.93;58.22;102516.84;5009275;28;20053;-73
2022/08/08 08:37:15;;;;;;;3.17;1.40;;;;;;;18.96;59.15;102511.47;5010631;28;20121;-73
2022/08/08 08:39:41;;;;;;;4.57;1.40;;;;;;;18.98;57.50;102514.06;5019195;28;20485;-73
2022/08/08 08:42:09;;;;;;;3.78;1.30;;;;;;;19.04;59.33;102520.91;5010148;28;20495;-72
2022/08/08 08:44:35;;;;;;;2.78;1.42;;;;;;;19.05;57.11;102518.22;5010647;28;20034;-73
2022/08/08 08:47:01;;;;;;;3.05;1.25;;;;;;;19.07;57.52;102520.81;5012548;28;20536;-73
2022/08/08 08:49:27;;;;;;;3.65;1.40;;;;;;;19.09;58.28;102525.09;5012080;28;20038;-73
2022/08/08 08:51:55;;;;;;;4.10;1.45;;;;;;;19.11;57.13;102523.28;5009207;28;20130;-74
2022/08/08 08:54:24;;;;;;;1.77;1.15;;;;;;;19.14;57.94;102522.31;5011545;28;20022;-73
2022/08/08 08:56:50;;;;;;;2.30;1.17;;;;;;;19.18;56.45;102529.19;5011982;28;20100;-74
2022/08/08 08:59:16;;;;;;;2.47;1.35;;;;;;;19.22;55.88;102522.91;5011272;28;20030;-73
2022/08/08 09:01:43;;;;;;;3.20;1.38;;;;;;;19.26;55.70;102524.53;5008914;28;20033;-73
2022/08/08 09:04:13;;;;;;;4.25;1.20;;;;;;;19.30;55.44;102527.91;5007962;28;20520;-73
2022/08/08 09:06:41;;;;;;;3.85;1.00;;;;;;;19.35;56.36;102523.34;5012530;28;20033;-73
2022/08/08 09:09:16;;;;;;;2.38;0.95;;;;;;;19.39;55.70;102527.56;5020593;28;20037;-73
2022/08/08 09:11:45;;;;;;;2.90;1.13;;;;;;;19.45;57.23;102520.34;5016094;28;20087;-73
2022/08/08 09:14:11;;;;;;;2.60;1.20;;;;;;;19.46;55.49;102517.66;5016496;28;20033;-73
2022/08/08 09:16:37;;;;;;;3.15;1.10;;;;;;;19.50;55.77;102521.91;5013532;28;21556;-74
2022/08/08 09:19:03;;;;;;;2.85;1.20;;;;;;;19.56;54.73;102521.69;5008824;28;20034;-73
2022/08/08 09:21:30;;;;;;;2.78;1.08;;;;;;;19.63;55.03;102516.19;5018727;28;20033;-73
2022/08/08 09:23:56;;;;;;;1.95;1.40;;;;;;;19.71;56.47;102511.47;5018649;28;20045;-73
2022/08/08 09:26:44;;;;;;;2.47;0.95;;;;;;;19.79;56.07;102525.25;5017767;28;20021;-73
2022/08/08 09:29:19;;;;;;;2.03;1.00;;;;;;;19.90;56.24;102524.00;5016005;28;20382;-73
2022/08/08 09:32:01;;;;;;;1.80;1.00;;;;;;;19.97;56.33;102525.50;5011398;28;20044;-73
2022/08/08 09:34:34;;;;;;;2.50;1.10;;;;;;;20.03;56.21;102517.31;5010551;28;20044;-73
2022/08/08 09:37:02;;;;;;;1.85;1.10;;;;;;;20.08;57.30;102517.13;5006328;28;20054;-73
2022/08/08 09:39:39;;;;;;;3.53;1.27;;;;;;;20.13;56.29;102523.97;5011948;28;20037;-73
2022/08/08 09:42:10;;;;;;;2.17;1.00;;;;;;;20.16;56.19;102523.84;5011422;28;20076;-73
2022/08/08 09:44:51;;;;;;;1.38;1.00;;;;;;;20.22;56.90;102517.47;5019721;28;20425;-74
2022/08/08 09:47:18;;;;;;;3.28;1.13;;;;;;;20.26;55.87;102521.69;5014043;28;20045;-73
2022/08/08 09:49:45;;;;;;;2.75;1.27;;;;;;;20.33;56.73;102522.28;5011358;28;20017;-73
2022/08/08 09:52:20;;;;;;;3.38;1.20;;;;;;;20.42;55.55;102516.66;5007174;28;20358;-73
2022/08/08 09:54:48;;;;;;;1.30;0.85;;;;;;;20.55;55.57;102519.66;5011485;28;20037;-73
2022/08/08 09:57:46;;;;;;;1.95;0.90;;;;;;;20.63;54.71;102521.97;5012432;28;20021;-73
2022/08/08 10:00:14;;;;;;;3.42;0.98;;;;;;;20.70;53.02;102509.38;5011005;28;20018;-74
2022/08/08 10:02:45;;;;;;;1.75;0.85;;;;;;;20.79;53.38;102511.63;5008995;28;20061;-74
2022/08/08 10:05:16;;;;;;;3.47;1.00;;;;;;;20.88;53.49;102516.56;5009676;28;20034;-73
2022/08/08 10:07:50;;;;;;;2.55;1.00;;;;;;;20.92;53.65;102517.28;5012064;28;20049;-73
2022/08/08 10:10:32;;;;;;;2.00;0.88;;;;;;;20.93;53.67;102522.47;5014597;28;20061;-73
2022/08/08 10:12:59;;;;;;;2.13;1.10;;;;;;;20.95;53.40;102517.16;5014049;28;20032;-73
2022/08/08 10:15:36;;;;;;;2.58;0.90;;;;;;;20.98;51.79;102513.50;5008696;28;20038;-73
2022/08/08 10:18:02;;;;;;;1.73;0.88;;;;;;;21.03;51.37;102512.38;5015056;28;20034;-73
2022/08/08 10:20:28;;;;;;;1.13;0.80;;;;;;;21.13;51.83;102510.19;5009721;28;20049;-73
2022/08/08 10:23:00;;;;;;;1.90;0.88;;;;;;;21.29;52.29;102522.72;5010827;28;20087;-73
2022/08/08 10:25:27;;;;;;;2.33;0.90;;;;;;;21.38;50.60;102517.88;5011745;28;20060;-72
2022/08/08 10:27:54;;;;;;;3.17;1.08;;;;;;;21.43;50.33;102517.69;5012254;28;20389;-73
2022/08/08 10:30:21;;;;;;;2.13;1.02;;;;;;;21.46;49.98;102514.88;5007779;28;20025;-73
2022/08/08 10:32:56;;;;;;;1.88;0.90;;;;;;;21.50;50.95;102513.00;5013398;28;20036;-73
2022/08/08 10:35:31;;;;;;;2.83;0.95;;;;;;;21.44;50.13;102514.09;5013666;28;20017;-74
2022/08/08 10:38:01;;;;;;;2.83;1.02;;;;;;;21.43;49.39;102520.34;5009123;28;20060;-73
2022/08/08 10:40:30;;;;;;;1.63;0.90;;;;;;;21.37;48.16;102516.16;5011329;28;20033;-74
2022/08/08 10:43:04;;;;;;;2.63;0.85;;;;;;;21.34;50.62;102524.28;5011195;28;20462;-73
2022/08/08 10:45:40;;;;;;;2.53;0.90;;;;;;;21.29;48.12;102526.25;5009866;28;20036;-73
2022/08/08 10:48:10;;;;;;;1.85;0.90;;;;;;;21.29;48.99;102526.25;5010800;28;20411;-73
2022/08/08 10:50:38;;;;;;;1.73;0.90;;;;;;;21.27;48.01;102520.16;5010705;28;20030;-73
2022/08/08 10:53:06;;;;;;;4.25;1.10;;;;;;;21.31;49.71;102524.41;5010450;28;20037;-73
2022/08/08 10:55:31;;;;;;;3.20;1.20;;;;;;;21.37;47.88;102518.81;5010353;28;20052;-73
2022/08/08 10:58:02;;;;;;;1.00;0.80;;;;;;;21.40;48.58;102511.66;5011420;28;20485;-73
2022/08/08 11:00:27;;;;;;;2.03;0.80;;;;;;;21.41;47.83;102513.38;5014471;28;20072;-73
2022/08/08 11:02:55;;;;;;;2.58;0.80;;;;;;;21.49;48.77;102508.63;5010706;28;20053;-73
2022/08/08 11:05:21;;;;;;;2.88;0.93;;;;;;;21.53;49.32;102504.88;5009509;28;20025;-73
2022/08/08 11:07:51;;;;;;;1.98;0.90;;;;;;;21.59;48.95;102511.72;5004770;28;20045;-73
2022/08/08 11:10:21;;;;;;;1.67;0.80;;;;;;;21.60;48.32;102509.00;5008087;28;20037;-74
2022/08/08 11:12:49;;;;;;;2.35;0.73;;;;;;;21.58;48.33;102505.53;5010127;28;20021;-73
2022/08/08 11:15:16;;;;;;;1.58;0.80;;;;;;;21.51;47.65;102504.97;5010488;28;20034;-73
2022/08/08 11:17:43;;;;;;;2.35;0.90;;;;;;;21.39;48.63;102502.88;5010654;28;20030;-73
2022/08/08 11:20:17;;;;;;;1.75;0.80;;;;;;;21.38;49.23;102503.81;5011025;28;20470;-73
2022/08/08 11:22:48;;;;;;;2.70;0.90;;;;;;;21.42;48.20;102501.88;5010196;28;20033;-73
2022/08/08 11:25:14;;;;;;;2.08;0.73;;;;;;;21.48;47.57;102499.78;5009352;28;20092;-73
2022/08/08 11:27:41;;;;;;;1.17;0.70;;;;;;;21.59;46.99;102494.00;5007372;28;20042;-74
2022/08/08 11:30:08;;;;;;;1.73;0.77;;;;;;;21.73;46.91;102489.88;5009683;28;21758;-73
2022/08/08 11:32:39;;;;;;;3.00;0.80;;;;;;;21.81;47.40;102495.69;5013552;28;20034;-73
2022/08/08 11:35:10;;;;;;;1.58;0.90;;;;;;;21.83;47.58;102493.84;5012706;28;20034;-73
2022/08/08 11:37:36;;;;;;;0.60;0.60;;;;;;;21.82;47.59;102492.97;5014716;28;20409;-74
2022/08/08 11:40:04;;;;;;;1.65;0.70;;;;;;;21.77;48.92;102488.81;5011555;28;20030;-73
2022/08/08 11:42:30;;;;;;;1.33;0.60;;;;;;;21.73;48.54;102482.81;5011804;28;20197;-73
2022/08/08 11:44:56;;;;;;;1.20;0.70;;;;;;;21.72;48.25;102490.81;5013575;28;20049;-73
2022/08/08 11:47:22;;;;;;;1.65;0.70;;;;;;;21.73;49.35;102485.47;5012194;28;20108;-73
2022/08/08 11:50:00;;;;;;;1.15;0.70;;;;;;;21.80;48.29;102484.22;5013189;28;20029;-73
2022/08/08 11:52:26;;;;;;;1.83;0.70;;;;;;;21.90;46.79;102478.50;5007529;28;20026;-73
2022/08/08 11:54:51;;;;;;;1.77;0.70;;;;;;;21.97;46.75;102472.84;5011098;28;20034;-73
2022/08/08 11:57:17;;;;;;;1.70;0.63;;;;;;;21.96;46.30;102479.06;5006186;28;20049;-73
2022/08/08 11:59:51;;;;;;;1.27;0.70;;;;;;;21.90;47.06;102468.75;5004725;28;20036;-73
2022/08/08 12:02:17;;;;;;;6.88;1.10;;;;;;;21.82;45.09;102469.13;5007667;28;20049;-73